CheckWX is a tool to help pilots better visualize weather data.  It is not intended as a substitute for an official pre-flight weather briefing.

03:17:55 UTC

KIJD METAR
Windham Airport
Willimantic, Connecticut, USA
Current

26 mins ago

KIJD 270252Z AUTO VRB05KT 10SM CLR 24/13 A2984 RMK AO2 SLP102 T02390133 51015
Observed
May-27 @ 02:52 UTC
Wind
  • Variable at 5 KTS
Visibility
10 SM
Flight Rules
VFR
Cloud Levels
  • Clear skies
Temperature
24°C / 75°F
Dewpoint
13°C / 55°F
Humidity
50%
Altimeter
29.84" Hg
Pressure
1010.52 hPa
Previous

1 hour ago

KIJD 270152Z AUTO VRB05KT 10SM CLR 23/16 A2983 RMK AO2 SLP099 T02280156
Observed
May-27 @ 01:52 UTC
Wind
  • Variable at 5 KTS
Visibility
10 SM
Flight Rules
VFR
Cloud Levels
  • Clear skies
Temperature
23°C / 73°F
Dewpoint
16°C / 61°F
Humidity
65%
Altimeter
29.83" Hg
Pressure
1010.12 hPa
Previous

2 hours ago

KIJD 270052Z AUTO 23003KT 10SM CLR 23/16 A2981 RMK AO2 SLP092 T02330161
Observed
May-27 @ 00:52 UTC
Wind
  • 230° at 3 KTS
Visibility
10 SM
Flight Rules
VFR
Cloud Levels
  • Clear skies
Temperature
23°C / 73°F
Dewpoint
16°C / 61°F
Humidity
65%
Altimeter
29.81" Hg
Pressure
1009.52 hPa